Aérodrome :
LOGIN :

S'inscrire | Disclaimer

   EN    FR    IT 

 










Légende :    VFR   VFR Marginal   IFR   IFR Intensif   IFR Très Intensif
Visi : 
Plafond : 
>= 8 km
>= 3000ft
5 à 8 km
1000 à 3000 ft
1500m à 5 km
500 à 1000 ft
800 à 1500m
200 à 500 ft
< 800m
< 200 ft
Symboles :   Orages  Brouillard  Fortes neiges  Fortes précipitations  Vent > 20 kt
SIGMETs :   Divers  Orages  Givrage  Turbulence  Onde Orograph.  Cendres Volcan.







- Altitude de l'aérodrome : 1276 ft
- Code IATA : STR


EDDS - Stuttgart

DERNIER METAR :
  • 221020Z 31011KT 250V350 9999 FEW028 SCT033 15/09 Q1019 NOSIG

METARs EXPIRÉS :
  • 220950Z 30011KT 260V330 9999 FEW027 SCT032 14/08 Q1019 NOSIG
  • 220920Z 31012KT 9999 FEW026 14/08 Q1019 NOSIG
  • 220850Z AUTO 30011KT //// R25/P2000N // ///////// 14/08 Q1019 NOSIG
  • 220820Z 29010KT 9999 SCT022 14/08 Q1018 NOSIG
  • 220750Z 31009KT 9999 SCT019 SCT027 13/09 Q1018 NOSIG

TAF TAF EDDS
Valide du 22 à 06h jusqu'au 23 à 06h UTC


220500Z 2206/2306 28008KT 9999 SCT010 BKN020
TEMPO 2206/2209 4000 -RA BR BKN008
BECMG 2218/2221 VRB03KT
Pas de NOTAMs connus pour ce terrain.



MET'MAP, la Météo Aéronautique d'un coup d'oeil ! - Copyright ORBIFLY Décembre 2007 - Disclaimer

ORBIFLY MET'MAP TEAM :

Programmation & Développement : Alexandra Zaïnal
Conception & Développement : Baudouin d'Aumeries
Co-Programmation & Développement : Marc-Olivier Méhu
Soutien technique & logistique : Manuel Goepfert

Contact : metmap@orbifly.com




SOURCES & CREDITS :

   NOAA